createdAt,value
2022-10-23T00:01:26.544Z,7.90
2022-10-23T00:03:55.100Z,8.43
2022-10-23T00:06:22.270Z,7.18
2022-10-23T00:08:49.916Z,8.05
2022-10-23T00:11:18.834Z,8.68
2022-10-23T00:13:46.470Z,7.32
2022-10-23T00:16:13.966Z,7.88
2022-10-23T00:18:41.128Z,6.20
2022-10-23T00:21:09.356Z,8.45
2022-10-23T00:23:36.631Z,6.03
2022-10-23T00:26:04.395Z,7.47
2022-10-23T00:28:31.609Z,8.20
2022-10-23T00:30:58.711Z,6.90
2022-10-23T00:33:25.865Z,7.72
2022-10-23T00:35:53.004Z,7.10
2022-10-23T00:38:20.101Z,8.18
2022-10-23T00:40:47.240Z,7.63
2022-10-23T00:43:18.085Z,6.95
2022-10-23T00:45:45.468Z,7.28
2022-10-23T00:48:12.925Z,8.13
2022-10-23T00:50:40.054Z,7.95
2022-10-23T00:53:07.858Z,7.93
2022-10-23T00:55:36.277Z,7.80
2022-10-23T00:58:03.682Z,8.32
2022-10-23T01:00:41.077Z,6.97
2022-10-23T01:03:08.542Z,7.85
2022-10-23T01:05:43.414Z,7.85
2022-10-23T01:08:13.059Z,7.68
2022-10-23T01:10:45.110Z,8.25
2022-10-23T01:13:15.464Z,8.15
2022-10-23T01:15:42.558Z,7.90
2022-10-23T01:18:17.925Z,7.63
2022-10-23T01:20:44.986Z,7.50
2022-10-23T01:23:18.406Z,7.35
2022-10-23T01:26:11.886Z,6.80
2022-10-23T01:28:39.136Z,7.53
2022-10-23T01:31:10.925Z,7.75
2022-10-23T01:33:41.416Z,6.88
2022-10-23T01:36:12.309Z,7.90
2022-10-23T01:38:45.371Z,7.47
2022-10-23T01:41:18.288Z,7.55
2022-10-23T01:44:11.393Z,7.65
2022-10-23T01:46:39.314Z,6.63
2022-10-23T01:49:08.582Z,7.75
2022-10-23T01:55:00.385Z,7.32
2022-10-23T01:57:28.901Z,6.63
2022-10-23T02:00:02.208Z,8.13
2022-10-23T02:02:31.089Z,7.88
2022-10-23T02:05:04.298Z,7.15
2022-10-23T02:07:31.747Z,7.60
2022-10-23T02:09:59.165Z,8.18
2022-10-23T02:12:38.539Z,7.70
2022-10-23T02:15:12.247Z,7.15
2022-10-23T02:17:39.511Z,6.95
2022-10-23T02:20:17.989Z,7.45
2022-10-23T02:22:50.627Z,7.22
2022-10-23T02:25:20.048Z,7.20
2022-10-23T02:27:53.156Z,8.13
2022-10-23T02:30:20.736Z,8.30
2022-10-23T02:32:49.718Z,6.30
2022-10-23T02:35:17.470Z,6.75
2022-10-23T02:37:44.922Z,6.57
2022-10-23T02:40:12.581Z,5.70
2022-10-23T02:42:39.651Z,7.90
2022-10-23T02:45:18.571Z,6.55
2022-10-23T02:47:51.721Z,7.57
2022-10-23T02:50:34.010Z,7.78
2022-10-23T02:53:19.670Z,7.70
2022-10-23T02:55:56.265Z,7.43
2022-10-23T02:58:38.048Z,7.55
2022-10-23T03:01:16.759Z,7.72
2022-10-23T03:03:51.727Z,7.03
2022-10-23T03:06:19.249Z,7.80
2022-10-23T03:08:50.432Z,7.65
2022-10-23T03:11:17.827Z,6.93
2022-10-23T03:13:44.913Z,6.72
2022-10-23T03:16:12.028Z,6.97
2022-10-23T03:18:39.488Z,7.35
2022-10-23T03:21:06.757Z,7.53
2022-10-23T03:23:33.925Z,6.57
2022-10-23T03:26:01.312Z,7.18
2022-10-23T03:28:28.443Z,7.35
2022-10-23T03:30:56.274Z,8.10
2022-10-23T03:33:23.589Z,7.47
2022-10-23T03:35:50.977Z,6.60
2022-10-23T03:38:18.094Z,8.23
2022-10-23T03:40:45.196Z,7.25
2022-10-23T03:43:12.521Z,7.57
2022-10-23T03:45:39.752Z,6.68
2022-10-23T03:48:07.146Z,7.45
2022-10-23T03:50:34.595Z,5.75
2022-10-23T03:53:01.994Z,8.10
2022-10-23T03:55:29.268Z,6.57
2022-10-23T03:57:56.532Z,7.28
2022-10-23T04:00:23.712Z,7.72
2022-10-23T04:02:50.801Z,7.18
2022-10-23T04:05:18.097Z,7.18
2022-10-23T04:07:45.377Z,7.00
2022-10-23T04:10:12.648Z,6.32
2022-10-23T04:12:39.932Z,6.10
2022-10-23T04:15:07.278Z,6.25
2022-10-23T04:17:34.556Z,6.35
2022-10-23T04:20:01.670Z,6.68
2022-10-23T04:22:28.959Z,5.57
2022-10-23T04:24:56.150Z,5.95
2022-10-23T04:27:23.525Z,5.70
2022-10-23T04:29:53.187Z,5.68
2022-10-23T04:32:22.657Z,5.90
2022-10-23T04:34:49.879Z,5.60
2022-10-23T04:37:16.995Z,4.88
2022-10-23T04:39:44.077Z,4.88
2022-10-23T04:42:11.557Z,5.32
2022-10-23T04:44:38.649Z,5.00
2022-10-23T04:47:05.800Z,5.20
2022-10-23T04:49:32.950Z,5.40
2022-10-23T04:52:00.114Z,4.93
2022-10-23T04:54:27.214Z,5.40
2022-10-23T04:56:54.340Z,5.22
2022-10-23T04:59:21.420Z,5.03
2022-10-23T05:01:48.634Z,3.95
2022-10-23T05:04:15.808Z,4.20
2022-10-23T05:06:42.905Z,4.47
2022-10-23T05:09:10.020Z,5.10
2022-10-23T05:11:37.143Z,4.43
2022-10-23T05:14:04.247Z,3.97
2022-10-23T05:16:35.589Z,4.38
2022-10-23T05:19:03.104Z,4.35
2022-10-23T05:21:31.547Z,4.15
2022-10-23T05:26:27.073Z,4.22
2022-10-23T05:28:54.229Z,4.43
2022-10-23T05:31:22.780Z,3.80
2022-10-23T05:33:50.005Z,4.03
2022-10-23T05:36:17.575Z,3.90
2022-10-23T05:38:45.861Z,4.13
2022-10-23T05:41:13.206Z,3.60
2022-10-23T05:43:40.365Z,3.90
2022-10-23T05:46:07.855Z,3.90
2022-10-23T05:48:35.506Z,3.97
2022-10-23T05:51:06.473Z,4.00
2022-10-23T05:53:34.579Z,3.85
2022-10-23T05:56:09.709Z,3.88
2022-10-23T05:58:37.000Z,3.95
2022-10-23T06:01:08.079Z,3.45
2022-10-23T06:03:35.661Z,3.83
2022-10-23T06:06:02.796Z,3.85
2022-10-23T06:08:30.177Z,3.13
2022-10-23T06:10:57.300Z,3.60
2022-10-23T06:13:24.617Z,3.70
2022-10-23T06:15:51.705Z,3.80
2022-10-23T06:18:18.752Z,4.10
2022-10-23T06:20:45.889Z,4.20
2022-10-23T06:23:12.998Z,3.33
2022-10-23T06:25:40.062Z,3.92
2022-10-23T06:28:07.156Z,4.50
2022-10-23T06:30:34.353Z,3.88
2022-10-23T06:33:03.386Z,4.38
2022-10-23T06:35:33.321Z,4.25
2022-10-23T06:38:00.488Z,4.18
2022-10-23T06:40:27.605Z,4.45
2022-10-23T06:42:56.320Z,4.18
2022-10-23T06:45:23.516Z,3.88
2022-10-23T06:47:51.618Z,3.30
2022-10-23T06:50:18.720Z,4.65
2022-10-23T06:52:47.287Z,3.85
2022-10-23T06:55:14.903Z,4.90
2022-10-23T06:57:42.341Z,4.53
2022-10-23T07:00:10.162Z,4.40
2022-10-23T07:02:37.585Z,3.67
2022-10-23T07:05:07.699Z,4.10
2022-10-23T07:07:37.031Z,3.50
2022-10-23T07:10:04.790Z,3.85
2022-10-23T07:12:31.952Z,3.95
2022-10-23T07:14:59.038Z,4.65
2022-10-23T07:17:26.312Z,3.47
2022-10-23T07:19:53.485Z,4.90
2022-10-23T07:22:20.587Z,3.70
2022-10-23T07:24:47.755Z,4.32
2022-10-23T07:27:15.250Z,4.00
2022-10-23T07:29:42.704Z,3.90
2022-10-23T07:32:09.876Z,3.50
2022-10-23T07:34:37.461Z,3.67
2022-10-23T07:37:05.098Z,3.72
2022-10-23T07:39:32.230Z,4.00
2022-10-23T07:41:59.475Z,3.83
2022-10-23T07:44:27.773Z,3.63
2022-10-23T07:46:55.086Z,3.80
2022-10-23T07:49:22.233Z,3.83
2022-10-23T07:51:51.428Z,3.63
2022-10-23T07:54:18.936Z,3.65
2022-10-23T07:56:46.036Z,3.78
2022-10-23T07:59:13.863Z,3.65
2022-10-23T08:01:43.716Z,3.83
2022-10-23T08:04:11.496Z,3.17
2022-10-23T08:06:38.786Z,3.42
2022-10-23T08:09:06.946Z,3.45
2022-10-23T08:11:38.327Z,3.97
2022-10-23T08:14:06.574Z,3.30
2022-10-23T08:16:34.707Z,3.70
2022-10-23T08:19:02.144Z,3.67
2022-10-23T08:21:29.553Z,3.58
2022-10-23T08:23:57.416Z,3.42
2022-10-23T08:26:25.201Z,3.60
2022-10-23T08:28:53.352Z,2.95
2022-10-23T08:31:21.327Z,2.17
2022-10-23T08:36:18.477Z,2.95
2022-10-23T08:38:45.747Z,3.60
2022-10-23T08:41:33.380Z,3.42
2022-10-23T08:44:12.610Z,3.40
2022-10-23T08:50:15.071Z,2.45
2022-10-23T08:53:02.272Z,2.88
2022-10-23T08:55:50.249Z,2.80
2022-10-23T08:58:29.709Z,2.67
2022-10-23T09:00:56.979Z,2.78
2022-10-23T09:09:50.542Z,2.80
2022-10-23T09:12:18.982Z,3.13
2022-10-23T09:14:46.100Z,2.85
2022-10-23T09:19:42.380Z,3.03
2022-10-23T09:22:11.674Z,2.75
2022-10-23T09:24:38.913Z,2.75
2022-10-23T09:27:06.100Z,3.20
2022-10-23T09:29:39.056Z,2.83
2022-10-23T09:32:07.128Z,2.63
2022-10-23T09:34:35.246Z,2.67
2022-10-23T09:37:04.541Z,3.05
2022-10-23T09:39:37.875Z,2.42
2022-10-23T09:42:15.342Z,2.67
2022-10-23T09:44:48.614Z,2.45
2022-10-23T09:47:19.747Z,2.72
2022-10-23T09:49:51.939Z,2.92
2022-10-23T09:52:19.915Z,2.05
2022-10-23T09:54:52.240Z,3.08
2022-10-23T09:57:19.314Z,2.53
2022-10-23T09:59:51.096Z,3.03
2022-10-23T10:02:27.249Z,2.67
2022-10-23T10:04:54.735Z,3.00
2022-10-23T10:07:22.374Z,3.03
2022-10-23T10:09:49.940Z,2.45
2022-10-23T10:12:32.023Z,2.63
2022-10-23T10:15:02.241Z,2.83
2022-10-23T10:17:55.769Z,2.95
2022-10-23T10:20:30.864Z,2.63
2022-10-23T10:23:18.459Z,2.42
2022-10-23T10:26:04.178Z,1.95
2022-10-23T10:28:31.536Z,2.40
2022-10-23T10:31:01.509Z,2.22
2022-10-23T10:33:30.803Z,2.50
2022-10-23T10:36:18.650Z,2.53
2022-10-23T10:38:51.037Z,2.50
2022-10-23T10:41:18.145Z,2.33
2022-10-23T10:43:51.830Z,2.20
2022-10-23T10:46:48.264Z,2.00
2022-10-23T10:49:30.563Z,2.20
2022-10-23T10:52:07.900Z,2.20
2022-10-23T10:54:53.504Z,2.38
2022-10-23T10:57:34.895Z,1.80
2022-10-23T11:00:05.648Z,1.60
2022-10-23T11:02:36.701Z,2.03
2022-10-23T11:05:13.932Z,2.08
2022-10-23T11:07:52.727Z,2.00
2022-10-23T11:10:20.173Z,1.80
2022-10-23T11:12:47.974Z,2.03
2022-10-23T11:15:16.737Z,1.95
2022-10-23T11:17:49.185Z,1.80
2022-10-23T11:20:31.508Z,2.38
2022-10-23T11:23:17.418Z,2.10
2022-10-23T11:26:03.418Z,2.10
2022-10-23T11:28:48.407Z,1.60
2022-10-23T11:31:15.600Z,1.95
2022-10-23T11:33:58.872Z,2.10
2022-10-23T11:36:44.381Z,3.05
2022-10-23T11:39:31.015Z,1.85
2022-10-23T11:42:13.863Z,2.28
2022-10-23T11:44:42.810Z,2.10
2022-10-23T11:47:25.013Z,2.10
2022-10-23T11:49:52.527Z,2.10
2022-10-23T11:52:24.629Z,1.77
2022-10-23T11:55:05.553Z,1.77
2022-10-23T11:57:32.695Z,2.20
2022-10-23T12:00:00.452Z,1.73
2022-10-23T12:02:36.773Z,1.98
2022-10-23T12:05:08.069Z,2.20
2022-10-23T12:07:39.197Z,2.08
2022-10-23T12:10:21.061Z,2.17
2022-10-23T12:12:58.723Z,1.95
2022-10-23T12:15:27.019Z,2.10
2022-10-23T12:17:55.330Z,2.08
2022-10-23T12:20:25.558Z,1.90
2022-10-23T12:23:11.317Z,1.92
2022-10-23T12:25:44.184Z,2.08
2022-10-23T12:28:19.115Z,1.58
2022-10-23T12:30:48.369Z,2.15
2022-10-23T12:33:38.021Z,2.00
2022-10-23T12:36:05.150Z,2.00
2022-10-23T12:38:35.323Z,2.05
2022-10-23T12:41:11.061Z,2.15
2022-10-23T12:43:38.900Z,2.47
2022-10-23T12:46:17.909Z,1.67
2022-10-23T12:48:52.463Z,2.45
2022-10-23T12:53:49.035Z,1.77
2022-10-23T12:56:16.867Z,1.98
2022-10-23T12:58:51.674Z,1.70
2022-10-23T13:01:27.510Z,2.30
2022-10-23T13:04:06.351Z,2.08
2022-10-23T13:06:33.748Z,2.22
2022-10-23T13:09:01.441Z,2.42
2022-10-23T13:11:28.817Z,2.30
2022-10-23T13:13:56.052Z,2.33
2022-10-23T13:16:24.256Z,2.33
2022-10-23T13:18:52.181Z,2.17
2022-10-23T13:21:22.264Z,2.33
2022-10-23T13:23:49.901Z,2.58
2022-10-23T13:26:25.257Z,1.92
2022-10-23T13:28:52.552Z,2.20
2022-10-23T13:31:31.576Z,2.33
2022-10-23T13:34:01.547Z,2.55
2022-10-23T13:36:29.899Z,2.20
2022-10-23T13:41:24.131Z,2.38
2022-10-23T13:43:51.279Z,2.28
2022-10-23T13:46:19.453Z,2.28
2022-10-23T13:48:47.132Z,2.50
2022-10-23T13:51:20.445Z,2.33
2022-10-23T13:53:47.958Z,2.50
2022-10-23T13:56:16.137Z,2.67
2022-10-23T13:58:43.409Z,2.50
2022-10-23T14:01:20.419Z,2.38
2022-10-23T14:03:47.807Z,2.50
2022-10-23T14:06:14.929Z,2.45
2022-10-23T14:08:42.137Z,2.20
2022-10-23T14:11:10.578Z,2.15
2022-10-23T14:13:38.145Z,2.80
2022-10-23T14:16:05.569Z,2.47
2022-10-23T14:18:32.689Z,2.28
2022-10-23T14:21:03.129Z,2.25
2022-10-23T14:23:30.410Z,2.70
2022-10-23T14:26:08.213Z,2.55
2022-10-23T14:28:35.477Z,3.47
2022-10-23T14:31:07.127Z,3.13
2022-10-23T14:33:34.406Z,2.38
2022-10-23T14:36:01.731Z,2.65
2022-10-23T14:38:29.264Z,2.85
2022-10-23T14:40:56.739Z,2.55
2022-10-23T14:43:24.560Z,2.90
2022-10-23T14:45:52.105Z,2.63
2022-10-23T14:48:19.359Z,2.75
2022-10-23T14:50:47.924Z,2.63
2022-10-23T14:53:15.401Z,3.10
2022-10-23T14:55:42.637Z,2.60
2022-10-23T14:58:15.594Z,3.08
2022-10-23T15:00:42.883Z,2.80
2022-10-23T15:03:11.433Z,2.67
2022-10-23T15:05:41.788Z,2.95
2022-10-23T15:08:09.005Z,2.65
2022-10-23T15:10:40.002Z,2.97
2022-10-23T15:13:07.394Z,2.70
2022-10-23T15:15:34.546Z,2.55
2022-10-23T15:18:01.640Z,3.00
2022-10-23T15:20:28.827Z,3.50
2022-10-23T15:22:56.230Z,3.17
2022-10-23T15:25:23.561Z,3.80
2022-10-23T15:27:50.686Z,2.97
2022-10-23T15:30:19.557Z,4.80
2022-10-23T15:32:46.705Z,2.80
2022-10-23T15:35:13.820Z,4.75
2022-10-23T15:37:41.219Z,5.05
2022-10-23T15:40:08.936Z,5.40
2022-10-23T15:42:36.061Z,4.75
2022-10-23T15:45:03.348Z,2.80
2022-10-23T15:47:30.402Z,3.40
2022-10-23T15:49:58.690Z,4.85
2022-10-23T15:52:29.295Z,3.47
2022-10-23T15:54:56.375Z,11.32
2022-10-23T15:57:23.499Z,7.90
2022-10-23T15:59:51.146Z,6.50
2022-10-23T16:02:18.371Z,4.65
2022-10-23T16:04:45.758Z,6.22
2022-10-23T16:07:12.929Z,7.93
2022-10-23T16:09:40.011Z,6.07
2022-10-23T16:12:07.260Z,7.22
2022-10-23T16:14:34.393Z,5.90
2022-10-23T16:17:01.654Z,2.90
2022-10-23T16:19:29.008Z,2.65
2022-10-23T16:21:56.177Z,2.80
2022-10-23T16:24:23.256Z,2.58
2022-10-23T16:26:53.487Z,2.72
2022-10-23T16:29:24.368Z,3.20
2022-10-23T16:31:51.771Z,6.07
2022-10-23T16:34:18.866Z,5.13
2022-10-23T16:36:46.286Z,6.20
2022-10-23T16:39:14.115Z,4.32
2022-10-23T16:41:41.242Z,2.78
2022-10-23T16:44:08.370Z,3.17
2022-10-23T16:46:35.769Z,3.70
2022-10-23T16:49:03.319Z,3.40
2022-10-23T16:51:31.740Z,2.80
2022-10-23T16:56:28.681Z,3.55
2022-10-23T16:58:56.548Z,3.38
2022-10-23T17:01:25.402Z,3.65
2022-10-23T17:03:53.340Z,3.30
2022-10-23T17:06:22.735Z,2.80
2022-10-23T17:08:50.149Z,3.05
2022-10-23T17:11:17.208Z,3.25
2022-10-23T17:13:55.253Z,3.15
2022-10-23T17:16:29.965Z,3.90
2022-10-23T17:18:57.537Z,3.40
2022-10-23T17:21:24.928Z,3.30
2022-10-23T17:23:52.207Z,3.70
2022-10-23T17:26:22.376Z,3.13
2022-10-23T17:28:49.644Z,2.97
2022-10-23T17:31:24.104Z,6.63
2022-10-23T17:33:52.510Z,3.75
2022-10-23T17:38:46.844Z,2.95
2022-10-23T17:41:14.921Z,3.13
2022-10-23T17:43:42.327Z,3.17
2022-10-23T17:46:10.503Z,3.25
2022-10-23T17:48:39.260Z,3.03
2022-10-23T17:51:06.471Z,2.35
2022-10-23T17:53:34.706Z,3.00
2022-10-23T17:56:02.676Z,2.13
2022-10-23T17:58:30.242Z,3.20
2022-10-23T18:00:57.781Z,3.55
2022-10-23T18:03:25.046Z,3.50
2022-10-23T18:05:52.231Z,3.20
2022-10-23T18:08:19.321Z,3.42
2022-10-23T18:10:46.479Z,3.83
2022-10-23T18:13:13.691Z,3.45
2022-10-23T18:15:40.861Z,2.92
2022-10-23T18:18:07.990Z,2.53
2022-10-23T18:20:44.831Z,2.60
2022-10-23T18:23:12.194Z,2.78
2022-10-23T18:25:42.982Z,3.00
2022-10-23T18:28:10.064Z,2.85
2022-10-23T18:33:05.476Z,2.90
2022-10-23T18:35:36.058Z,3.20
2022-10-23T18:38:04.018Z,2.72
2022-10-23T18:40:32.373Z,3.05
2022-10-23T18:45:42.950Z,2.72
2022-10-23T18:48:14.284Z,2.72
2022-10-23T18:53:30.861Z,3.08
2022-10-23T18:58:39.265Z,3.10
2022-10-23T19:01:06.654Z,2.88
2022-10-23T19:03:34.098Z,3.35
2022-10-23T19:06:01.259Z,2.90
2022-10-23T19:08:29.978Z,2.33
2022-10-23T19:11:00.392Z,3.05
2022-10-23T19:13:27.568Z,3.50
2022-10-23T19:15:54.713Z,3.75
2022-10-23T19:18:21.893Z,2.58
2022-10-23T19:20:49.073Z,2.67
2022-10-23T19:23:16.669Z,2.50
2022-10-23T19:25:45.284Z,2.40
2022-10-23T19:28:12.446Z,2.90
2022-10-23T19:30:39.997Z,2.50
2022-10-23T19:33:07.103Z,2.15
2022-10-23T19:35:34.287Z,2.20
2022-10-23T19:38:01.457Z,2.50
2022-10-23T19:40:28.594Z,2.20
2022-10-23T19:42:55.755Z,2.50
2022-10-23T19:45:22.886Z,2.67
2022-10-23T19:47:50.071Z,2.45
2022-10-23T19:50:17.206Z,2.92
2022-10-23T19:52:44.404Z,2.85
2022-10-23T19:55:11.570Z,2.53
2022-10-23T19:57:38.708Z,2.55
2022-10-23T20:00:07.188Z,2.60
2022-10-23T20:05:08.525Z,2.30
2022-10-23T20:07:37.086Z,2.25
2022-10-23T20:10:07.425Z,2.67
2022-10-23T20:12:34.908Z,2.10
2022-10-23T20:15:02.189Z,2.47
2022-10-23T20:17:29.724Z,1.95
2022-10-23T20:19:56.882Z,1.85
2022-10-23T20:22:24.556Z,1.60
2022-10-23T20:24:51.724Z,1.50
2022-10-23T20:30:48.226Z,1.50
2022-10-23T20:33:15.430Z,1.40
2022-10-23T20:35:43.187Z,1.40
2022-10-23T20:38:10.599Z,1.25
2022-10-23T20:40:37.850Z,1.08
2022-10-23T20:43:05.406Z,1.10
2022-10-23T20:45:32.581Z,1.50
2022-10-23T20:47:59.689Z,1.20
2022-10-23T20:50:27.080Z,1.40
2022-10-23T20:52:54.249Z,1.20
2022-10-23T20:55:21.385Z,1.33
2022-10-23T20:57:48.501Z,1.10
2022-10-23T21:00:16.311Z,1.00
2022-10-23T21:02:47.004Z,1.00
2022-10-23T21:05:15.987Z,0.80
2022-10-23T21:07:43.169Z,1.50
2022-10-23T21:10:10.388Z,1.23
2022-10-23T21:12:37.561Z,0.75
2022-10-23T21:15:07.604Z,1.00
2022-10-23T21:17:38.701Z,0.90
2022-10-23T21:20:06.539Z,1.00
2022-10-23T21:22:33.810Z,1.00
2022-10-23T21:25:01.628Z,0.90
2022-10-23T21:27:28.778Z,1.05
2022-10-23T21:29:55.873Z,0.70
2022-10-23T21:32:23.003Z,0.90
2022-10-23T21:34:50.269Z,1.10
2022-10-23T21:37:17.415Z,0.80
2022-10-23T21:39:45.205Z,1.00
2022-10-23T21:42:13.329Z,0.90
2022-10-23T21:44:40.737Z,1.08
2022-10-23T21:47:07.917Z,0.80
2022-10-23T21:49:35.115Z,0.90
2022-10-23T21:52:02.259Z,0.88
2022-10-23T21:54:29.359Z,0.75
2022-10-23T21:56:56.485Z,1.00
2022-10-23T21:59:27.589Z,0.70
2022-10-23T22:01:57.258Z,0.95
2022-10-23T22:04:24.533Z,0.57
2022-10-23T22:06:51.694Z,1.27
2022-10-23T22:09:20.190Z,0.93
2022-10-23T22:14:14.345Z,0.75
2022-10-23T22:16:42.228Z,0.93
2022-10-23T22:19:11.233Z,1.00
2022-10-23T22:21:38.356Z,1.10
2022-10-23T22:24:05.543Z,1.02
2022-10-23T22:26:34.241Z,1.27
2022-10-23T22:29:02.764Z,1.52
2022-10-23T22:36:24.181Z,1.27
2022-10-23T22:38:51.267Z,1.25
2022-10-23T22:41:18.426Z,1.13
2022-10-23T22:43:45.555Z,1.00
2022-10-23T22:46:13.992Z,1.42
2022-10-23T22:53:36.153Z,1.08
2022-10-23T22:56:06.473Z,1.20
2022-10-23T22:58:33.832Z,1.20
2022-10-23T23:01:18.263Z,1.33
2022-10-23T23:03:46.046Z,1.30
2022-10-23T23:06:13.262Z,1.20
2022-10-23T23:08:41.413Z,1.40
2022-10-23T23:11:51.988Z,1.10
2022-10-23T23:14:23.138Z,1.30
2022-10-23T23:16:51.893Z,1.20
2022-10-23T23:19:19.005Z,1.30
2022-10-23T23:21:46.098Z,2.03
2022-10-23T23:24:13.369Z,1.40
2022-10-23T23:26:40.521Z,1.60
2022-10-23T23:29:07.606Z,1.55
2022-10-23T23:31:34.818Z,2.13
2022-10-23T23:34:01.951Z,1.52
2022-10-23T23:36:29.713Z,1.60
2022-10-23T23:38:57.418Z,1.65
2022-10-23T23:41:25.163Z,1.88
2022-10-23T23:43:53.979Z,2.00
2022-10-23T23:46:21.340Z,1.70
2022-10-23T23:48:49.570Z,1.63
2022-10-23T23:51:18.090Z,2.00
2022-10-23T23:56:12.409Z,2.53
2022-10-23T23:58:39.693Z,1.90
